sensor_id;sensor_type;location;lat;lon;timestamp;P1;durP1;ratioP1;P2;durP2;ratioP2
53915;SDS011;39827;49.652;18.770;2022-09-03T00:10:43;5.00;;;2.10;;
53915;SDS011;39827;49.652;18.770;2022-09-03T00:13:19;5.80;;;2.53;;
53915;SDS011;39827;49.652;18.770;2022-09-03T00:15:49;4.25;;;2.10;;
53915;SDS011;39827;49.652;18.770;2022-09-03T00:18:20;4.70;;;2.35;;
53915;SDS011;39827;49.652;18.770;2022-09-03T00:23:32;3.78;;;2.08;;
53915;SDS011;39827;49.652;18.770;2022-09-03T00:28:46;4.88;;;2.22;;
53915;SDS011;39827;49.652;18.770;2022-09-03T00:31:20;6.20;;;2.60;;
53915;SDS011;39827;49.652;18.770;2022-09-03T00:33:51;3.50;;;2.08;;
53915;SDS011;39827;49.652;18.770;2022-09-03T00:36:24;4.65;;;2.20;;
53915;SDS011;39827;49.652;18.770;2022-09-03T00:38:58;3.13;;;1.90;;
53915;SDS011;39827;49.652;18.770;2022-09-03T00:47:23;7.13;;;2.38;;
53915;SDS011;39827;49.652;18.770;2022-09-03T00:52:50;5.75;;;2.42;;
53915;SDS011;39827;49.652;18.770;2022-09-03T01:00:32;4.43;;;2.45;;
53915;SDS011;39827;49.652;18.770;2022-09-03T01:03:15;4.50;;;2.38;;
53915;SDS011;39827;49.652;18.770;2022-09-03T01:06:08;5.30;;;2.50;;
53915;SDS011;39827;49.652;18.770;2022-09-03T01:13:56;5.13;;;2.30;;
53915;SDS011;39827;49.652;18.770;2022-09-03T01:16:44;9.55;;;2.47;;
53915;SDS011;39827;49.652;18.770;2022-09-03T01:30:44;7.38;;;2.35;;
53915;SDS011;39827;49.652;18.770;2022-09-03T01:36:01;7.32;;;2.60;;
53915;SDS011;39827;49.652;18.770;2022-09-03T01:38:53;8.07;;;2.63;;
53915;SDS011;39827;49.652;18.770;2022-09-03T01:49:58;5.45;;;2.72;;
53915;SDS011;39827;49.652;18.770;2022-09-03T01:55:47;6.07;;;2.38;;
53915;SDS011;39827;49.652;18.770;2022-09-03T01:58:36;7.72;;;2.78;;
53915;SDS011;39827;49.652;18.770;2022-09-03T02:01:09;6.43;;;3.30;;
53915;SDS011;39827;49.652;18.770;2022-09-03T02:03:40;5.72;;;3.15;;
53915;SDS011;39827;49.652;18.770;2022-09-03T02:06:09;8.88;;;2.97;;
53915;SDS011;39827;49.652;18.770;2022-09-03T02:08:35;5.97;;;2.92;;
53915;SDS011;39827;49.652;18.770;2022-09-03T02:11:02;5.32;;;2.95;;
53915;SDS011;39827;49.652;18.770;2022-09-03T02:13:40;4.60;;;2.90;;
53915;SDS011;39827;49.652;18.770;2022-09-03T02:16:10;7.90;;;3.22;;
53915;SDS011;39827;49.652;18.770;2022-09-03T02:18:43;5.70;;;2.85;;
53915;SDS011;39827;49.652;18.770;2022-09-03T02:21:12;5.93;;;2.90;;
53915;SDS011;39827;49.652;18.770;2022-09-03T02:23:41;8.55;;;3.03;;
53915;SDS011;39827;49.652;18.770;2022-09-03T02:26:07;4.38;;;2.95;;
53915;SDS011;39827;49.652;18.770;2022-09-03T02:28:36;5.53;;;3.35;;
53915;SDS011;39827;49.652;18.770;2022-09-03T02:31:01;5.63;;;2.90;;
53915;SDS011;39827;49.652;18.770;2022-09-03T02:33:27;7.18;;;3.60;;
53915;SDS011;39827;49.652;18.770;2022-09-03T02:35:55;6.35;;;3.38;;
53915;SDS011;39827;49.652;18.770;2022-09-03T02:38:22;7.10;;;3.38;;
53915;SDS011;39827;49.652;18.770;2022-09-03T02:40:52;10.35;;;3.35;;
53915;SDS011;39827;49.652;18.770;2022-09-03T02:43:25;6.55;;;3.33;;
53915;SDS011;39827;49.652;18.770;2022-09-03T02:46:03;7.95;;;3.00;;
53915;SDS011;39827;49.652;18.770;2022-09-03T02:48:30;5.47;;;3.03;;
53915;SDS011;39827;49.652;18.770;2022-09-03T02:50:57;6.90;;;3.05;;
53915;SDS011;39827;49.652;18.770;2022-09-03T02:53:23;8.85;;;3.15;;
53915;SDS011;39827;49.652;18.770;2022-09-03T02:55:48;4.65;;;3.15;;
53915;SDS011;39827;49.652;18.770;2022-09-03T02:58:14;8.70;;;3.40;;
53915;SDS011;39827;49.652;18.770;2022-09-03T03:00:40;9.85;;;3.30;;
53915;SDS011;39827;49.652;18.770;2022-09-03T03:03:05;8.15;;;3.38;;
53915;SDS011;39827;49.652;18.770;2022-09-03T03:05:44;12.52;;;3.58;;
53915;SDS011;39827;49.652;18.770;2022-09-03T03:08:12;7.85;;;3.42;;
53915;SDS011;39827;49.652;18.770;2022-09-03T03:10:39;7.13;;;3.25;;
53915;SDS011;39827;49.652;18.770;2022-09-03T03:13:06;5.57;;;3.35;;
53915;SDS011;39827;49.652;18.770;2022-09-03T03:15:31;7.65;;;3.65;;
53915;SDS011;39827;49.652;18.770;2022-09-03T03:17:57;7.07;;;3.53;;
53915;SDS011;39827;49.652;18.770;2022-09-03T03:20:22;5.75;;;3.38;;
53915;SDS011;39827;49.652;18.770;2022-09-03T03:22:48;7.03;;;3.65;;
53915;SDS011;39827;49.652;18.770;2022-09-03T03:25:13;6.43;;;3.60;;
53915;SDS011;39827;49.652;18.770;2022-09-03T03:27:39;6.47;;;3.38;;
53915;SDS011;39827;49.652;18.770;2022-09-03T03:30:06;7.78;;;3.72;;
53915;SDS011;39827;49.652;18.770;2022-09-03T03:32:34;8.90;;;3.95;;
53915;SDS011;39827;49.652;18.770;2022-09-03T03:35:03;7.50;;;3.70;;
53915;SDS011;39827;49.652;18.770;2022-09-03T03:37:30;6.75;;;3.88;;
53915;SDS011;39827;49.652;18.770;2022-09-03T03:39:56;9.82;;;3.83;;
53915;SDS011;39827;49.652;18.770;2022-09-03T03:42:21;6.15;;;4.03;;
53915;SDS011;39827;49.652;18.770;2022-09-03T03:44:46;8.02;;;4.10;;
53915;SDS011;39827;49.652;18.770;2022-09-03T03:47:12;7.75;;;3.30;;
53915;SDS011;39827;49.652;18.770;2022-09-03T03:49:37;7.47;;;3.63;;
53915;SDS011;39827;49.652;18.770;2022-09-03T03:52:03;7.90;;;3.50;;
53915;SDS011;39827;49.652;18.770;2022-09-03T03:54:28;6.32;;;4.03;;
53915;SDS011;39827;49.652;18.770;2022-09-03T03:56:54;8.43;;;4.03;;
53915;SDS011;39827;49.652;18.770;2022-09-03T03:59:20;6.57;;;4.03;;
53915;SDS011;39827;49.652;18.770;2022-09-03T04:01:45;12.65;;;3.90;;
53915;SDS011;39827;49.652;18.770;2022-09-03T04:04:12;10.20;;;3.33;;
53915;SDS011;39827;49.652;18.770;2022-09-03T04:06:38;12.60;;;3.65;;
53915;SDS011;39827;49.652;18.770;2022-09-03T04:09:03;7.93;;;3.85;;
53915;SDS011;39827;49.652;18.770;2022-09-03T04:11:29;7.22;;;4.50;;
53915;SDS011;39827;49.652;18.770;2022-09-03T04:13:54;6.10;;;4.07;;
53915;SDS011;39827;49.652;18.770;2022-09-03T04:16:21;8.23;;;4.85;;
53915;SDS011;39827;49.652;18.770;2022-09-03T04:18:48;6.15;;;4.18;;
53915;SDS011;39827;49.652;18.770;2022-09-03T04:21:24;5.93;;;3.88;;
53915;SDS011;39827;49.652;18.770;2022-09-03T04:23:51;8.52;;;4.45;;
53915;SDS011;39827;49.652;18.770;2022-09-03T04:26:21;7.47;;;3.70;;
53915;SDS011;39827;49.652;18.770;2022-09-03T04:28:52;15.82;;;4.93;;
53915;SDS011;39827;49.652;18.770;2022-09-03T04:31:19;11.90;;;5.38;;
53915;SDS011;39827;49.652;18.770;2022-09-03T04:33:45;9.23;;;4.50;;
53915;SDS011;39827;49.652;18.770;2022-09-03T04:36:11;7.15;;;4.28;;
53915;SDS011;39827;49.652;18.770;2022-09-03T04:38:42;6.50;;;3.70;;
53915;SDS011;39827;49.652;18.770;2022-09-03T04:41:10;7.13;;;3.83;;
53915;SDS011;39827;49.652;18.770;2022-09-03T04:43:38;5.28;;;3.78;;
53915;SDS011;39827;49.652;18.770;2022-09-03T04:46:05;7.50;;;4.80;;
53915;SDS011;39827;49.652;18.770;2022-09-03T04:48:32;8.48;;;4.45;;
53915;SDS011;39827;49.652;18.770;2022-09-03T04:51:05;5.72;;;3.60;;
53915;SDS011;39827;49.652;18.770;2022-09-03T04:53:36;10.65;;;4.30;;
53915;SDS011;39827;49.652;18.770;2022-09-03T04:56:10;10.27;;;3.65;;
53915;SDS011;39827;49.652;18.770;2022-09-03T04:58:59;9.85;;;4.93;;
53915;SDS011;39827;49.652;18.770;2022-09-03T05:01:27;6.18;;;3.50;;
53915;SDS011;39827;49.652;18.770;2022-09-03T05:03:54;7.13;;;4.00;;
53915;SDS011;39827;49.652;18.770;2022-09-03T05:06:21;10.65;;;3.97;;
53915;SDS011;39827;49.652;18.770;2022-09-03T05:08:49;6.97;;;4.00;;
53915;SDS011;39827;49.652;18.770;2022-09-03T05:11:15;10.13;;;4.32;;
53915;SDS011;39827;49.652;18.770;2022-09-03T05:13:41;9.98;;;4.05;;
53915;SDS011;39827;49.652;18.770;2022-09-03T05:16:08;8.95;;;4.20;;
53915;SDS011;39827;49.652;18.770;2022-09-03T05:18:35;10.65;;;4.57;;
53915;SDS011;39827;49.652;18.770;2022-09-03T05:21:02;6.97;;;4.57;;
53915;SDS011;39827;49.652;18.770;2022-09-03T05:23:28;8.05;;;4.38;;
53915;SDS011;39827;49.652;18.770;2022-09-03T05:25:58;9.68;;;4.15;;
53915;SDS011;39827;49.652;18.770;2022-09-03T05:28:25;11.00;;;4.05;;
53915;SDS011;39827;49.652;18.770;2022-09-03T05:31:11;7.22;;;4.97;;
53915;SDS011;39827;49.652;18.770;2022-09-03T05:33:39;8.30;;;4.63;;
53915;SDS011;39827;49.652;18.770;2022-09-03T05:36:07;9.23;;;4.85;;
53915;SDS011;39827;49.652;18.770;2022-09-03T05:38:35;10.40;;;4.45;;
53915;SDS011;39827;49.652;18.770;2022-09-03T05:41:01;6.88;;;4.38;;
53915;SDS011;39827;49.652;18.770;2022-09-03T05:43:28;7.25;;;4.45;;
53915;SDS011;39827;49.652;18.770;2022-09-03T05:45:58;8.95;;;4.53;;
53915;SDS011;39827;49.652;18.770;2022-09-03T05:48:27;9.13;;;4.53;;
53915;SDS011;39827;49.652;18.770;2022-09-03T05:51:00;9.63;;;4.80;;
53915;SDS011;39827;49.652;18.770;2022-09-03T05:53:27;9.07;;;3.78;;
53915;SDS011;39827;49.652;18.770;2022-09-03T05:55:54;4.72;;;3.50;;
53915;SDS011;39827;49.652;18.770;2022-09-03T05:58:24;6.53;;;4.03;;
53915;SDS011;39827;49.652;18.770;2022-09-03T06:00:50;6.75;;;4.03;;
53915;SDS011;39827;49.652;18.770;2022-09-03T06:03:16;7.85;;;3.47;;
53915;SDS011;39827;49.652;18.770;2022-09-03T06:05:50;5.20;;;3.67;;
53915;SDS011;39827;49.652;18.770;2022-09-03T06:08:19;6.10;;;3.83;;
53915;SDS011;39827;49.652;18.770;2022-09-03T06:10:45;7.70;;;3.88;;
53915;SDS011;39827;49.652;18.770;2022-09-03T06:13:11;9.20;;;3.75;;
53915;SDS011;39827;49.652;18.770;2022-09-03T06:15:36;7.28;;;3.75;;
53915;SDS011;39827;49.652;18.770;2022-09-03T06:18:02;5.85;;;3.00;;
53915;SDS011;39827;49.652;18.770;2022-09-03T06:20:28;8.65;;;3.72;;
53915;SDS011;39827;49.652;18.770;2022-09-03T06:22:54;7.90;;;3.33;;
53915;SDS011;39827;49.652;18.770;2022-09-03T06:25:19;6.68;;;3.25;;
53915;SDS011;39827;49.652;18.770;2022-09-03T06:27:45;4.55;;;3.00;;
53915;SDS011;39827;49.652;18.770;2022-09-03T06:30:11;5.53;;;2.95;;
53915;SDS011;39827;49.652;18.770;2022-09-03T06:32:47;6.45;;;2.60;;
53915;SDS011;39827;49.652;18.770;2022-09-03T06:35:16;6.18;;;2.65;;
53915;SDS011;39827;49.652;18.770;2022-09-03T06:37:42;7.03;;;2.70;;
53915;SDS011;39827;49.652;18.770;2022-09-03T06:40:08;6.07;;;2.50;;
53915;SDS011;39827;49.652;18.770;2022-09-03T06:42:40;4.75;;;2.83;;
53915;SDS011;39827;49.652;18.770;2022-09-03T06:45:06;4.53;;;2.45;;
53915;SDS011;39827;49.652;18.770;2022-09-03T06:47:33;5.22;;;2.30;;
53915;SDS011;39827;49.652;18.770;2022-09-03T06:49:59;5.15;;;2.20;;
53915;SDS011;39827;49.652;18.770;2022-09-03T06:52:26;5.18;;;2.78;;
53915;SDS011;39827;49.652;18.770;2022-09-03T06:54:51;6.85;;;2.80;;
53915;SDS011;39827;49.652;18.770;2022-09-03T06:57:17;7.72;;;2.45;;
53915;SDS011;39827;49.652;18.770;2022-09-03T06:59:42;5.95;;;2.17;;
53915;SDS011;39827;49.652;18.770;2022-09-03T07:02:08;7.47;;;2.25;;
53915;SDS011;39827;49.652;18.770;2022-09-03T07:04:34;4.75;;;2.40;;
53915;SDS011;39827;49.652;18.770;2022-09-03T07:06:59;6.57;;;2.38;;
53915;SDS011;39827;49.652;18.770;2022-09-03T07:09:25;8.10;;;2.47;;
53915;SDS011;39827;49.652;18.770;2022-09-03T07:11:51;6.05;;;2.70;;
53915;SDS011;39827;49.652;18.770;2022-09-03T07:14:17;5.78;;;2.50;;
53915;SDS011;39827;49.652;18.770;2022-09-03T07:16:43;7.80;;;2.25;;
53915;SDS011;39827;49.652;18.770;2022-09-03T07:19:10;5.25;;;2.17;;
53915;SDS011;39827;49.652;18.770;2022-09-03T07:21:37;5.60;;;2.45;;
53915;SDS011;39827;49.652;18.770;2022-09-03T07:24:05;6.90;;;2.20;;
53915;SDS011;39827;49.652;18.770;2022-09-03T07:26:35;6.88;;;2.72;;
53915;SDS011;39827;49.652;18.770;2022-09-03T07:29:03;5.82;;;2.70;;
53915;SDS011;39827;49.652;18.770;2022-09-03T07:31:33;3.78;;;2.05;;
53915;SDS011;39827;49.652;18.770;2022-09-03T07:34:01;4.28;;;2.13;;
53915;SDS011;39827;49.652;18.770;2022-09-03T07:36:30;4.32;;;2.00;;
53915;SDS011;39827;49.652;18.770;2022-09-03T07:38:59;6.10;;;2.28;;
53915;SDS011;39827;49.652;18.770;2022-09-03T07:41:25;4.05;;;2.15;;
53915;SDS011;39827;49.652;18.770;2022-09-03T07:43:51;5.45;;;1.80;;
53915;SDS011;39827;49.652;18.770;2022-09-03T07:46:18;4.65;;;1.90;;
53915;SDS011;39827;49.652;18.770;2022-09-03T07:48:48;5.40;;;2.28;;
53915;SDS011;39827;49.652;18.770;2022-09-03T07:51:16;5.00;;;2.10;;
53915;SDS011;39827;49.652;18.770;2022-09-03T07:53:43;5.38;;;2.13;;
53915;SDS011;39827;49.652;18.770;2022-09-03T07:56:09;4.18;;;2.50;;
53915;SDS011;39827;49.652;18.770;2022-09-03T07:58:36;3.60;;;2.20;;
53915;SDS011;39827;49.652;18.770;2022-09-03T08:01:06;5.18;;;2.25;;
53915;SDS011;39827;49.652;18.770;2022-09-03T08:03:34;4.20;;;2.20;;
53915;SDS011;39827;49.652;18.770;2022-09-03T08:06:04;3.67;;;2.00;;
53915;SDS011;39827;49.652;18.770;2022-09-03T08:08:31;4.97;;;2.17;;
53915;SDS011;39827;49.652;18.770;2022-09-03T08:11:04;6.22;;;2.10;;
53915;SDS011;39827;49.652;18.770;2022-09-03T08:13:35;5.43;;;2.22;;
53915;SDS011;39827;49.652;18.770;2022-09-03T08:16:04;3.42;;;2.00;;
53915;SDS011;39827;49.652;18.770;2022-09-03T08:18:31;4.78;;;2.28;;
53915;SDS011;39827;49.652;18.770;2022-09-03T08:21:01;3.35;;;2.00;;
53915;SDS011;39827;49.652;18.770;2022-09-03T08:23:27;4.22;;;2.10;;
53915;SDS011;39827;49.652;18.770;2022-09-03T08:25:59;3.78;;;1.98;;
53915;SDS011;39827;49.652;18.770;2022-09-03T08:28:26;5.28;;;2.22;;
53915;SDS011;39827;49.652;18.770;2022-09-03T08:30:52;3.17;;;1.98;;
53915;SDS011;39827;49.652;18.770;2022-09-03T08:33:17;7.53;;;2.42;;
53915;SDS011;39827;49.652;18.770;2022-09-03T08:36:01;6.68;;;2.58;;
53915;SDS011;39827;49.652;18.770;2022-09-03T08:38:51;5.95;;;2.90;;
53915;SDS011;39827;49.652;18.770;2022-09-03T08:44:23;6.13;;;2.72;;
53915;SDS011;39827;49.652;18.770;2022-09-03T08:46:54;6.10;;;2.72;;
53915;SDS011;39827;49.652;18.770;2022-09-03T08:52:00;5.15;;;2.75;;
53915;SDS011;39827;49.652;18.770;2022-09-03T08:54:30;10.48;;;3.20;;
53915;SDS011;39827;49.652;18.770;2022-09-03T08:56:59;5.93;;;3.08;;
53915;SDS011;39827;49.652;18.770;2022-09-03T08:59:27;6.88;;;2.90;;
53915;SDS011;39827;49.652;18.770;2022-09-03T09:01:55;7.70;;;2.80;;
53915;SDS011;39827;49.652;18.770;2022-09-03T09:07:09;4.80;;;2.28;;
53915;SDS011;39827;49.652;18.770;2022-09-03T09:25:33;4.65;;;2.50;;
53915;SDS011;39827;49.652;18.770;2022-09-03T09:28:15;5.57;;;2.47;;
53915;SDS011;39827;49.652;18.770;2022-09-03T09:30:43;4.55;;;2.25;;
53915;SDS011;39827;49.652;18.770;2022-09-03T09:33:11;5.45;;;2.58;;
53915;SDS011;39827;49.652;18.770;2022-09-03T09:35:37;5.90;;;2.58;;
53915;SDS011;39827;49.652;18.770;2022-09-03T09:38:06;4.72;;;2.58;;
53915;SDS011;39827;49.652;18.770;2022-09-03T09:40:33;5.13;;;2.55;;
53915;SDS011;39827;49.652;18.770;2022-09-03T09:43:05;8.07;;;2.63;;
53915;SDS011;39827;49.652;18.770;2022-09-03T09:45:35;4.38;;;2.40;;
53915;SDS011;39827;49.652;18.770;2022-09-03T09:48:08;4.82;;;2.42;;
53915;SDS011;39827;49.652;18.770;2022-09-03T09:51:17;6.63;;;2.78;;
53915;SDS011;39827;49.652;18.770;2022-09-03T09:53:45;5.13;;;2.90;;
53915;SDS011;39827;49.652;18.770;2022-09-03T09:56:20;3.95;;;2.60;;
53915;SDS011;39827;49.652;18.770;2022-09-03T09:58:47;7.10;;;3.03;;
53915;SDS011;39827;49.652;18.770;2022-09-03T10:01:22;4.28;;;2.20;;
53915;SDS011;39827;49.652;18.770;2022-09-03T10:03:55;4.30;;;2.50;;
53915;SDS011;39827;49.652;18.770;2022-09-03T10:06:25;5.10;;;2.88;;
53915;SDS011;39827;49.652;18.770;2022-09-03T10:11:42;4.63;;;2.70;;
53915;SDS011;39827;49.652;18.770;2022-09-03T10:14:30;9.73;;;2.80;;
53915;SDS011;39827;49.652;18.770;2022-09-03T10:17:15;4.65;;;2.53;;
53915;SDS011;39827;49.652;18.770;2022-09-03T10:22:39;6.45;;;2.90;;
53915;SDS011;39827;49.652;18.770;2022-09-03T10:25:10;4.47;;;2.90;;
53915;SDS011;39827;49.652;18.770;2022-09-03T10:27:40;4.00;;;2.53;;
53915;SDS011;39827;49.652;18.770;2022-09-03T10:30:06;6.82;;;2.70;;
53915;SDS011;39827;49.652;18.770;2022-09-03T10:35:42;6.95;;;3.20;;
53915;SDS011;39827;49.652;18.770;2022-09-03T10:38:19;4.67;;;2.70;;
53915;SDS011;39827;49.652;18.770;2022-09-03T10:46:02;5.97;;;2.78;;
53915;SDS011;39827;49.652;18.770;2022-09-03T10:51:05;5.65;;;2.90;;
53915;SDS011;39827;49.652;18.770;2022-09-03T10:56:16;6.30;;;2.60;;
53915;SDS011;39827;49.652;18.770;2022-09-03T11:07:36;4.10;;;2.35;;
53915;SDS011;39827;49.652;18.770;2022-09-03T11:13:07;7.80;;;2.47;;
53915;SDS011;39827;49.652;18.770;2022-09-03T11:15:35;4.68;;;2.22;;
53915;SDS011;39827;49.652;18.770;2022-09-03T11:18:24;8.30;;;2.75;;
53915;SDS011;39827;49.652;18.770;2022-09-03T11:20:51;4.28;;;2.60;;
53915;SDS011;39827;49.652;18.770;2022-09-03T11:23:20;5.07;;;2.50;;
53915;SDS011;39827;49.652;18.770;2022-09-03T11:25:53;5.88;;;2.67;;
53915;SDS011;39827;49.652;18.770;2022-09-03T11:28:35;7.57;;;2.40;;
53915;SDS011;39827;49.652;18.770;2022-09-03T11:31:04;5.82;;;3.00;;
53915;SDS011;39827;49.652;18.770;2022-09-03T11:33:31;3.92;;;2.30;;
53915;SDS011;39827;49.652;18.770;2022-09-03T11:36:05;4.57;;;2.33;;
53915;SDS011;39827;49.652;18.770;2022-09-03T11:38:30;4.63;;;2.25;;
53915;SDS011;39827;49.652;18.770;2022-09-03T11:43:46;3.97;;;2.47;;
53915;SDS011;39827;49.652;18.770;2022-09-03T11:46:13;5.45;;;2.47;;
53915;SDS011;39827;49.652;18.770;2022-09-03T11:48:52;3.92;;;2.30;;
53915;SDS011;39827;49.652;18.770;2022-09-03T11:51:33;3.47;;;2.30;;
53915;SDS011;39827;49.652;18.770;2022-09-03T11:56:44;3.53;;;2.30;;
53915;SDS011;39827;49.652;18.770;2022-09-03T11:59:18;5.15;;;2.33;;
53915;SDS011;39827;49.652;18.770;2022-09-03T12:01:51;5.68;;;2.40;;
53915;SDS011;39827;49.652;18.770;2022-09-03T12:07:44;3.17;;;2.05;;
53915;SDS011;39827;49.652;18.770;2022-09-03T12:10:34;4.07;;;2.05;;
53915;SDS011;39827;49.652;18.770;2022-09-03T12:13:21;6.05;;;2.55;;
53915;SDS011;39827;49.652;18.770;2022-09-03T12:18:56;4.55;;;2.50;;
53915;SDS011;39827;49.652;18.770;2022-09-03T12:21:28;5.90;;;2.42;;
53915;SDS011;39827;49.652;18.770;2022-09-03T12:23:54;4.80;;;2.13;;
53915;SDS011;39827;49.652;18.770;2022-09-03T12:26:23;3.58;;;2.17;;
53915;SDS011;39827;49.652;18.770;2022-09-03T12:28:52;3.85;;;2.22;;
53915;SDS011;39827;49.652;18.770;2022-09-03T12:31:23;4.28;;;2.38;;
53915;SDS011;39827;49.652;18.770;2022-09-03T12:36:51;3.85;;;2.33;;
53915;SDS011;39827;49.652;18.770;2022-09-03T12:44:25;6.78;;;2.80;;
53915;SDS011;39827;49.652;18.770;2022-09-03T12:47:08;4.45;;;2.45;;
53915;SDS011;39827;49.652;18.770;2022-09-03T12:49:40;6.32;;;2.10;;
53915;SDS011;39827;49.652;18.770;2022-09-03T12:52:10;3.15;;;1.90;;
53915;SDS011;39827;49.652;18.770;2022-09-03T12:54:41;3.35;;;2.13;;
53915;SDS011;39827;49.652;18.770;2022-09-03T12:57:16;3.92;;;2.20;;
53915;SDS011;39827;49.652;18.770;2022-09-03T12:59:49;3.97;;;2.17;;
53915;SDS011;39827;49.652;18.770;2022-09-03T13:02:19;3.47;;;1.83;;
53915;SDS011;39827;49.652;18.770;2022-09-03T13:04:49;9.32;;;2.78;;
53915;SDS011;39827;49.652;18.770;2022-09-03T13:07:21;7.82;;;2.47;;
53915;SDS011;39827;49.652;18.770;2022-09-03T13:09:49;6.97;;;2.30;;
53915;SDS011;39827;49.652;18.770;2022-09-03T13:12:48;8.52;;;2.55;;
53915;SDS011;39827;49.652;18.770;2022-09-03T13:15:17;8.73;;;2.60;;
53915;SDS011;39827;49.652;18.770;2022-09-03T13:31:31;3.50;;;2.10;;
53915;SDS011;39827;49.652;18.770;2022-09-03T13:34:05;3.65;;;2.28;;
53915;SDS011;39827;49.652;18.770;2022-09-03T13:39:21;4.13;;;1.83;;
53915;SDS011;39827;49.652;18.770;2022-09-03T13:41:54;3.45;;;2.10;;
53915;SDS011;39827;49.652;18.770;2022-09-03T13:47:08;6.18;;;2.42;;
53915;SDS011;39827;49.652;18.770;2022-09-03T13:49:55;4.75;;;2.00;;
53915;SDS011;39827;49.652;18.770;2022-09-03T13:52:47;3.63;;;1.95;;
53915;SDS011;39827;49.652;18.770;2022-09-03T14:01:16;2.97;;;1.90;;
53915;SDS011;39827;49.652;18.770;2022-09-03T14:04:01;3.60;;;2.20;;
53915;SDS011;39827;49.652;18.770;2022-09-03T14:06:40;9.38;;;2.78;;
53915;SDS011;39827;49.652;18.770;2022-09-03T14:09:14;11.32;;;3.40;;
53915;SDS011;39827;49.652;18.770;2022-09-03T14:20:18;5.25;;;2.78;;
53915;SDS011;39827;49.652;18.770;2022-09-03T14:22:52;5.53;;;2.50;;
53915;SDS011;39827;49.652;18.770;2022-09-03T14:25:37;5.03;;;2.78;;
53915;SDS011;39827;49.652;18.770;2022-09-03T14:28:14;6.13;;;3.20;;
53915;SDS011;39827;49.652;18.770;2022-09-03T14:34:02;7.45;;;3.25;;
53915;SDS011;39827;49.652;18.770;2022-09-03T14:36:40;9.40;;;3.85;;
53915;SDS011;39827;49.652;18.770;2022-09-03T14:39:27;6.95;;;3.42;;
53915;SDS011;39827;49.652;18.770;2022-09-03T14:50:10;8.00;;;3.10;;
53915;SDS011;39827;49.652;18.770;2022-09-03T14:58:47;4.63;;;2.60;;
53915;SDS011;39827;49.652;18.770;2022-09-03T15:15:19;5.65;;;2.63;;
53915;SDS011;39827;49.652;18.770;2022-09-03T15:18:31;5.07;;;3.00;;
53915;SDS011;39827;49.652;18.770;2022-09-03T15:28:54;4.78;;;2.60;;
53915;SDS011;39827;49.652;18.770;2022-09-03T15:34:52;6.75;;;3.05;;
53915;SDS011;39827;49.652;18.770;2022-09-03T15:37:29;4.78;;;2.83;;
53915;SDS011;39827;49.652;18.770;2022-09-03T15:40:03;6.68;;;3.03;;
53915;SDS011;39827;49.652;18.770;2022-09-03T15:42:34;6.43;;;3.03;;
53915;SDS011;39827;49.652;18.770;2022-09-03T15:53:53;7.68;;;3.85;;
53915;SDS011;39827;49.652;18.770;2022-09-03T15:56:36;6.82;;;3.70;;
53915;SDS011;39827;49.652;18.770;2022-09-03T15:59:14;8.18;;;3.40;;
53915;SDS011;39827;49.652;18.770;2022-09-03T16:01:52;5.03;;;3.28;;
53915;SDS011;39827;49.652;18.770;2022-09-03T16:04:38;7.18;;;3.22;;
53915;SDS011;39827;49.652;18.770;2022-09-03T16:07:25;5.55;;;3.28;;
53915;SDS011;39827;49.652;18.770;2022-09-03T16:10:14;11.43;;;4.00;;
53915;SDS011;39827;49.652;18.770;2022-09-03T16:12:46;7.95;;;4.43;;
53915;SDS011;39827;49.652;18.770;2022-09-03T16:15:26;10.30;;;3.97;;
53915;SDS011;39827;49.652;18.770;2022-09-03T16:23:30;13.57;;;8.57;;
53915;SDS011;39827;49.652;18.770;2022-09-03T16:26:03;14.07;;;7.20;;
53915;SDS011;39827;49.652;18.770;2022-09-03T16:28:53;11.55;;;5.38;;
53915;SDS011;39827;49.652;18.770;2022-09-03T16:31:36;16.63;;;6.63;;
53915;SDS011;39827;49.652;18.770;2022-09-03T16:34:28;11.15;;;6.00;;
53915;SDS011;39827;49.652;18.770;2022-09-03T16:42:25;10.48;;;5.65;;
53915;SDS011;39827;49.652;18.770;2022-09-03T16:56:25;12.63;;;7.65;;
53915;SDS011;39827;49.652;18.770;2022-09-03T16:59:24;12.52;;;8.15;;
53915;SDS011;39827;49.652;18.770;2022-09-03T17:02:04;18.88;;;7.45;;
53915;SDS011;39827;49.652;18.770;2022-09-03T17:10:18;19.60;;;8.98;;
53915;SDS011;39827;49.652;18.770;2022-09-03T17:15:51;16.85;;;7.82;;
53915;SDS011;39827;49.652;18.770;2022-09-03T17:18:34;17.92;;;8.50;;
53915;SDS011;39827;49.652;18.770;2022-09-03T17:23:55;18.45;;;8.80;;
53915;SDS011;39827;49.652;18.770;2022-09-03T17:29:11;26.60;;;13.65;;
53915;SDS011;39827;49.652;18.770;2022-09-03T17:31:53;50.97;;;25.35;;
53915;SDS011;39827;49.652;18.770;2022-09-03T17:37:40;24.10;;;13.55;;
53915;SDS011;39827;49.652;18.770;2022-09-03T17:48:48;19.17;;;9.27;;
53915;SDS011;39827;49.652;18.770;2022-09-03T17:54:11;14.50;;;8.43;;
53915;SDS011;39827;49.652;18.770;2022-09-03T18:02:26;12.05;;;6.47;;
53915;SDS011;39827;49.652;18.770;2022-09-03T18:08:11;14.93;;;6.93;;
53915;SDS011;39827;49.652;18.770;2022-09-03T18:16:11;13.63;;;6.85;;
53915;SDS011;39827;49.652;18.770;2022-09-03T18:18:43;14.47;;;7.40;;
53915;SDS011;39827;49.652;18.770;2022-09-03T18:21:21;12.43;;;7.32;;
53915;SDS011;39827;49.652;18.770;2022-09-03T18:30:18;14.07;;;8.18;;
53915;SDS011;39827;49.652;18.770;2022-09-03T18:33:02;15.57;;;7.78;;
53915;SDS011;39827;49.652;18.770;2022-09-03T18:35:46;17.98;;;8.73;;
53915;SDS011;39827;49.652;18.770;2022-09-03T18:38:31;13.95;;;8.02;;
53915;SDS011;39827;49.652;18.770;2022-09-03T18:50:31;14.13;;;8.13;;
53915;SDS011;39827;49.652;18.770;2022-09-03T18:59:31;14.32;;;7.15;;
53915;SDS011;39827;49.652;18.770;2022-09-03T19:05:47;18.88;;;7.63;;
53915;SDS011;39827;49.652;18.770;2022-09-03T19:08:28;13.43;;;7.45;;
53915;SDS011;39827;49.652;18.770;2022-09-03T19:11:29;10.75;;;6.75;;
53915;SDS011;39827;49.652;18.770;2022-09-03T19:14:31;12.10;;;7.45;;
53915;SDS011;39827;49.652;18.770;2022-09-03T19:23:14;13.50;;;7.25;;
53915;SDS011;39827;49.652;18.770;2022-09-03T19:26:01;13.40;;;7.90;;
53915;SDS011;39827;49.652;18.770;2022-09-03T19:32:28;14.50;;;7.72;;
53915;SDS011;39827;49.652;18.770;2022-09-03T19:35:26;11.50;;;7.88;;
53915;SDS011;39827;49.652;18.770;2022-09-03T19:41:31;11.68;;;7.05;;
53915;SDS011;39827;49.652;18.770;2022-09-03T19:44:36;11.48;;;7.57;;
53915;SDS011;39827;49.652;18.770;2022-09-03T19:47:50;13.88;;;7.28;;
53915;SDS011;39827;49.652;18.770;2022-09-03T19:50:40;13.68;;;8.18;;
53915;SDS011;39827;49.652;18.770;2022-09-03T19:53:27;12.80;;;7.70;;
53915;SDS011;39827;49.652;18.770;2022-09-03T19:56:14;13.00;;;7.78;;
53915;SDS011;39827;49.652;18.770;2022-09-03T19:59:09;10.45;;;7.22;;
53915;SDS011;39827;49.652;18.770;2022-09-03T20:01:56;11.30;;;7.88;;
53915;SDS011;39827;49.652;18.770;2022-09-03T20:04:45;14.57;;;8.18;;
53915;SDS011;39827;49.652;18.770;2022-09-03T20:07:34;14.68;;;7.82;;
53915;SDS011;39827;49.652;18.770;2022-09-03T20:10:21;10.93;;;7.38;;
53915;SDS011;39827;49.652;18.770;2022-09-03T20:12:54;10.75;;;7.15;;
53915;SDS011;39827;49.652;18.770;2022-09-03T20:15:29;15.52;;;7.50;;
53915;SDS011;39827;49.652;18.770;2022-09-03T20:18:21;11.50;;;7.32;;
53915;SDS011;39827;49.652;18.770;2022-09-03T20:21:11;11.05;;;7.07;;
53915;SDS011;39827;49.652;18.770;2022-09-03T20:23:48;12.93;;;8.15;;
53915;SDS011;39827;49.652;18.770;2022-09-03T20:26:23;12.70;;;7.97;;
53915;SDS011;39827;49.652;18.770;2022-09-03T20:29:07;14.30;;;7.07;;